Etusivu
METAR-TAF:

METAR-TAF

Lentoasemat :

Bonrikin kansainvälinen lentoasema

Tarawa, Kiribati

Leveyspiiri: 01-21N, Pituuspiiri: 172-55E, korkeus merenpinnasta: 2 m

Tämänhetkinen sää

Tämä raportti tehtiin 1 tunti ja 9 minuuttia sitten, kello 03.00 UTC
Tuuli 10 kn idästä/koillisesta
Lämpötila 31°C
Kosteus 66%
Ilmanpaine 1007 hPa
Näkyvyys 10 km tai enemmän
Hajanaisia pilviä 2000 ft:n korkeudessa

METAR: NGTA 160300Z 07010KT 9999 SCT020 31/24 Q1007

Aika: 18:09 (04:09 UTC)

Sääennuste

Tämä raportti tehtiin 5 tuntia ja 5 minuuttia sitten, kello 23.04 UTC
Ennuste voimassa 16. päivästä klo 00 UTC - 16. päivään klo 24 UTC
Tuuli 7 kn idästä
Näkyvyys 10 km tai enemmän
Hajanaisia pilviä 1800 ft:n korkeudessa
Hajonneita pilviä 10000 ft:n korkeudessa

TAF: NGTA 152304Z 1600/1624 09007KT 9999 SCT018 BKN100

Säähavainnot ja -ennusteet yli 4000 lentoasemalta (METAR- ja TAF-raportit).

Käytössä olevat sääasemat on merkitty karttaan keltaisilla ja punaisilla pisteillä.

Aseta hiiri pisteen päälle nähdäksesi sääaseman nimen.

Klikkaa sitten nähdäksesi säähavainnot ja -ennusteet.

Kartan vaihtaminen: klikkaa mustalla rastilla varustettuja vihreitä pisteitä, niin voit zoomata sisään; viivalla varustettua vihreää pistettä, niin voit zoomata ulos tai vihreitä nuolia, niin pääset viereisille kartoille.


METAR-TAF: